Aérodrome :
LOGIN :

S'inscrire | Disclaimer

   EN    FR    IT 

 










Légende :    VFR   VFR Marginal   IFR   IFR Intensif   IFR Très Intensif
Visi : 
Plafond : 
>= 8 km
>= 3000ft
5 à 8 km
1000 à 3000 ft
1500m à 5 km
500 à 1000 ft
800 à 1500m
200 à 500 ft
< 800m
< 200 ft
Symboles :   Orages  Brouillard  Fortes neiges  Fortes précipitations  Vent > 20 kt
SIGMETs :   Divers  Orages  Givrage  Turbulence  Onde Orograph.  Cendres Volcan.






- Altitude de l'aérodrome : 3 ft
- Code IATA : DHR


EHKD - Den Helder De Kooy

DERNIER METAR :
  • 171425Z AUTO 12005KT 090V160 9999 OVC210 08/04 Q1012 BLU 07006KT CAVOK

METARs EXPIRÉS :
  • 171355Z AUTO 10002KT 9999 OVC210 08/03 Q1011 BLU 17006KT CAVOK
  • 171325Z AUTO 15005KT 100V180 9999 OVC220 09/03 Q1011 BLU 17006KT CAVOK
  • 171255Z AUTO 15005KT 110V190 9999 OVC210 08/04 Q1012 BLU 17006KT CAVOK
  • 171225Z AUTO 17004KT 130V200 9999 OVC220 08/03 Q1011 BLU 17006KT CAVOK
  • 171155Z AUTO 17004KT 140V200 9999 FEW270 08/04 Q1012 BLU

TAF TAF EHKD
Valide du 17 à 14h jusqu'au 18 à 02h UTC


171356Z 1714/1802 08004KT CAVOK
BECMG 1719/1722 04010KT
BECMG 1723/1801 SCT015 OVC020



MET'MAP, la Météo Aéronautique d'un coup d'oeil ! - Copyright ORBIFLY Décembre 2007 - Disclaimer

ORBIFLY MET'MAP TEAM :

Programmation & Développement : Alexandra Zaïnal
Conception & Développement : Baudouin d'Aumeries
Co-Programmation & Développement : Marc-Olivier Méhu
Soutien technique & logistique : Manuel Goepfert

Contact : metmap@orbifly.com




SOURCES & CREDITS :

   NOAA